sensor_id;sensor_type;location;lat;lon;timestamp;temperature;humidity
68109;SHT30;54893;49.864;19.084;2023-09-19T00:00:56;20.55;77.19
68109;SHT30;54893;49.864;19.084;2023-09-19T00:05:58;20.58;76.99
68109;SHT30;54893;49.864;19.084;2023-09-19T00:10:58;20.64;77.13
68109;SHT30;54893;49.864;19.084;2023-09-19T00:16:10;20.64;76.90
68109;SHT30;54893;49.864;19.084;2023-09-19T00:21:11;20.71;77.23
68109;SHT30;54893;49.864;19.084;2023-09-19T00:26:11;20.88;77.07
68109;SHT30;54893;49.864;19.084;2023-09-19T00:31:12;20.95;77.34
68109;SHT30;54893;49.864;19.084;2023-09-19T00:36:13;20.95;77.23
68109;SHT30;54893;49.864;19.084;2023-09-19T00:41:14;21.02;77.04
68109;SHT30;54893;49.864;19.084;2023-09-19T00:46:17;21.02;77.72
68109;SHT30;54893;49.864;19.084;2023-09-19T00:51:17;21.02;77.26
68109;SHT30;54893;49.864;19.084;2023-09-19T00:56:20;20.93;77.33
68109;SHT30;54893;49.864;19.084;2023-09-19T01:01:21;20.89;77.51
68109;SHT30;54893;49.864;19.084;2023-09-19T01:06:21;20.98;77.85
68109;SHT30;54893;49.864;19.084;2023-09-19T01:11:33;20.86;77.70
68109;SHT30;54893;49.864;19.084;2023-09-19T01:16:44;20.95;77.81
68109;SHT30;54893;49.864;19.084;2023-09-19T01:22:16;20.85;77.81
68109;SHT30;54893;49.864;19.084;2023-09-19T01:32:31;20.83;78.59
68109;SHT30;54893;49.864;19.084;2023-09-19T01:37:32;20.75;78.10
68109;SHT30;54893;49.864;19.084;2023-09-19T01:47:52;20.72;78.47
68109;SHT30;54893;49.864;19.084;2023-09-19T01:53:06;20.69;78.60
68109;SHT30;54893;49.864;19.084;2023-09-19T01:58:15;20.65;78.39
68109;SHT30;54893;49.864;19.084;2023-09-19T02:03:17;20.71;78.32
68109;SHT30;54893;49.864;19.084;2023-09-19T02:08:19;20.68;78.70
68109;SHT30;54893;49.864;19.084;2023-09-19T02:13:20;20.59;78.93
68109;SHT30;54893;49.864;19.084;2023-09-19T02:18:21;20.61;79.16
68109;SHT30;54893;49.864;19.084;2023-09-19T02:23:22;20.64;79.14
68109;SHT30;54893;49.864;19.084;2023-09-19T02:28:22;20.48;79.85
68109;SHT30;54893;49.864;19.084;2023-09-19T02:33:23;20.42;79.76
68109;SHT30;54893;49.864;19.084;2023-09-19T02:38:23;20.45;79.75
68109;SHT30;54893;49.864;19.084;2023-09-19T02:43:25;20.35;79.86
68109;SHT30;54893;49.864;19.084;2023-09-19T02:48:26;20.39;79.95
68109;SHT30;54893;49.864;19.084;2023-09-19T02:53:27;20.45;79.84
68109;SHT30;54893;49.864;19.084;2023-09-19T02:58:27;20.48;80.11
68109;SHT30;54893;49.864;19.084;2023-09-19T03:03:30;20.36;80.85
68109;SHT30;54893;49.864;19.084;2023-09-19T03:08:30;20.13;81.50
68109;SHT30;54893;49.864;19.084;2023-09-19T03:13:34;20.03;82.41
68109;SHT30;54893;49.864;19.084;2023-09-19T03:18:36;19.87;83.81
68109;SHT30;54893;49.864;19.084;2023-09-19T03:23:36;19.50;84.42
68109;SHT30;54893;49.864;19.084;2023-09-19T03:28:38;19.26;85.21
68109;SHT30;54893;49.864;19.084;2023-09-19T03:33:39;19.10;85.50
68109;SHT30;54893;49.864;19.084;2023-09-19T03:38:39;19.03;86.47
68109;SHT30;54893;49.864;19.084;2023-09-19T03:43:39;18.83;87.19
68109;SHT30;54893;49.864;19.084;2023-09-19T03:48:39;18.71;88.20
68109;SHT30;54893;49.864;19.084;2023-09-19T03:53:40;18.72;89.31
68109;SHT30;54893;49.864;19.084;2023-09-19T03:58:40;18.44;91.24
68109;SHT30;54893;49.864;19.084;2023-09-19T04:03:41;18.35;89.68
68109;SHT30;54893;49.864;19.084;2023-09-19T04:08:47;18.29;91.94
68109;SHT30;54893;49.864;19.084;2023-09-19T04:13:48;18.25;90.66
68109;SHT30;54893;49.864;19.084;2023-09-19T04:18:49;18.18;91.43
68109;SHT30;54893;49.864;19.084;2023-09-19T04:23:49;18.15;95.65
68109;SHT30;54893;49.864;19.084;2023-09-19T04:28:49;18.07;95.52
68109;SHT30;54893;49.864;19.084;2023-09-19T04:33:50;18.01;97.54
68109;SHT30;54893;49.864;19.084;2023-09-19T04:38:50;17.90;97.14
68109;SHT30;54893;49.864;19.084;2023-09-19T04:43:50;17.87;96.62
68109;SHT30;54893;49.864;19.084;2023-09-19T04:48:51;17.84;96.46
68109;SHT30;54893;49.864;19.084;2023-09-19T04:53:51;17.80;95.75
68109;SHT30;54893;49.864;19.084;2023-09-19T04:58:52;17.84;93.21
68109;SHT30;54893;49.864;19.084;2023-09-19T05:03:52;17.84;95.67
68109;SHT30;54893;49.864;19.084;2023-09-19T05:08:53;17.74;96.90
68109;SHT30;54893;49.864;19.084;2023-09-19T05:13:53;17.71;96.58
68109;SHT30;54893;49.864;19.084;2023-09-19T05:18:55;17.69;96.67
68109;SHT30;54893;49.864;19.084;2023-09-19T05:23:55;17.66;97.46
68109;SHT30;54893;49.864;19.084;2023-09-19T05:28:56;17.67;96.51
68109;SHT30;54893;49.864;19.084;2023-09-19T05:33:56;17.69;97.47
68109;SHT30;54893;49.864;19.084;2023-09-19T05:38:58;17.63;97.33
68109;SHT30;54893;49.864;19.084;2023-09-19T05:43:59;17.63;98.24
68109;SHT30;54893;49.864;19.084;2023-09-19T05:49:00;17.70;97.75
68109;SHT30;54893;49.864;19.084;2023-09-19T05:54:00;17.69;97.92
68109;SHT30;54893;49.864;19.084;2023-09-19T05:59:00;17.77;98.35
68109;SHT30;54893;49.864;19.084;2023-09-19T06:04:01;17.71;98.71
68109;SHT30;54893;49.864;19.084;2023-09-19T06:09:01;17.71;98.43
68109;SHT30;54893;49.864;19.084;2023-09-19T06:14:02;17.74;98.26
68109;SHT30;54893;49.864;19.084;2023-09-19T06:19:03;17.70;97.80
68109;SHT30;54893;49.864;19.084;2023-09-19T06:24:04;17.54;97.75
68109;SHT30;54893;49.864;19.084;2023-09-19T06:29:04;17.40;97.46
68109;SHT30;54893;49.864;19.084;2023-09-19T06:34:07;17.20;97.79
68109;SHT30;54893;49.864;19.084;2023-09-19T06:39:08;17.03;98.21
68109;SHT30;54893;49.864;19.084;2023-09-19T06:44:11;16.99;98.32
68109;SHT30;54893;49.864;19.084;2023-09-19T06:49:11;16.79;98.44
68109;SHT30;54893;49.864;19.084;2023-09-19T06:54:13;16.58;98.65
68109;SHT30;54893;49.864;19.084;2023-09-19T06:59:13;16.55;98.55
68109;SHT30;54893;49.864;19.084;2023-09-19T07:04:14;16.52;98.99
68109;SHT30;54893;49.864;19.084;2023-09-19T07:09:14;16.49;99.63
68109;SHT30;54893;49.864;19.084;2023-09-19T07:14:15;16.58;98.89
68109;SHT30;54893;49.864;19.084;2023-09-19T07:19:15;16.68;98.83
68109;SHT30;54893;49.864;19.084;2023-09-19T07:24:15;16.66;98.62
68109;SHT30;54893;49.864;19.084;2023-09-19T07:29:16;16.69;98.78
68109;SHT30;54893;49.864;19.084;2023-09-19T07:34:16;16.71;98.79
68109;SHT30;54893;49.864;19.084;2023-09-19T07:39:18;16.73;98.57
68109;SHT30;54893;49.864;19.084;2023-09-19T07:44:19;16.79;98.60
68109;SHT30;54893;49.864;19.084;2023-09-19T07:49:20;16.92;98.27
68109;SHT30;54893;49.864;19.084;2023-09-19T07:54:20;17.07;98.06
68109;SHT30;54893;49.864;19.084;2023-09-19T07:59:21;17.16;97.90
68109;SHT30;54893;49.864;19.084;2023-09-19T08:04:22;17.23;97.89
68109;SHT30;54893;49.864;19.084;2023-09-19T08:09:22;17.20;97.75
68109;SHT30;54893;49.864;19.084;2023-09-19T08:14:23;17.20;97.86
68109;SHT30;54893;49.864;19.084;2023-09-19T08:19:25;17.27;98.02
68109;SHT30;54893;49.864;19.084;2023-09-19T08:24:28;17.22;98.20
68109;SHT30;54893;49.864;19.084;2023-09-19T08:29:29;17.33;98.42
68109;SHT30;54893;49.864;19.084;2023-09-19T08:34:30;17.29;98.14
68109;SHT30;54893;49.864;19.084;2023-09-19T08:39:33;17.23;98.19
68109;SHT30;54893;49.864;19.084;2023-09-19T08:44:37;17.23;98.10
68109;SHT30;54893;49.864;19.084;2023-09-19T08:50:11;17.30;98.11
68109;SHT30;54893;49.864;19.084;2023-09-19T08:55:15;17.36;97.93
68109;SHT30;54893;49.864;19.084;2023-09-19T09:00:23;17.36;97.87
68109;SHT30;54893;49.864;19.084;2023-09-19T09:05:25;17.46;97.85
68109;SHT30;54893;49.864;19.084;2023-09-19T09:10:27;17.53;97.71
68109;SHT30;54893;49.864;19.084;2023-09-19T09:15:29;17.54;97.53
68109;SHT30;54893;49.864;19.084;2023-09-19T09:20:29;17.51;97.38
68109;SHT30;54893;49.864;19.084;2023-09-19T09:25:52;17.55;97.41
68109;SHT30;54893;49.864;19.084;2023-09-19T09:31:00;17.54;97.58
68109;SHT30;54893;49.864;19.084;2023-09-19T09:36:08;17.60;97.48
68109;SHT30;54893;49.864;19.084;2023-09-19T09:41:09;17.57;97.47
68109;SHT30;54893;49.864;19.084;2023-09-19T09:46:16;17.61;97.51
68109;SHT30;54893;49.864;19.084;2023-09-19T09:51:41;17.61;97.72
68109;SHT30;54893;49.864;19.084;2023-09-19T09:56:57;17.57;97.69
68109;SHT30;54893;49.864;19.084;2023-09-19T10:02:02;17.60;97.60
68109;SHT30;54893;49.864;19.084;2023-09-19T10:07:03;17.57;97.61
68109;SHT30;54893;49.864;19.084;2023-09-19T10:12:12;17.59;97.41
68109;SHT30;54893;49.864;19.084;2023-09-19T10:17:15;17.59;97.48
68109;SHT30;54893;49.864;19.084;2023-09-19T10:22:20;17.59;97.44
68109;SHT30;54893;49.864;19.084;2023-09-19T10:27:25;17.55;97.49
68109;SHT30;54893;49.864;19.084;2023-09-19T10:32:28;17.47;97.60
68109;SHT30;54893;49.864;19.084;2023-09-19T10:37:32;17.39;97.65
68109;SHT30;54893;49.864;19.084;2023-09-19T10:42:33;17.33;97.75
68109;SHT30;54893;49.864;19.084;2023-09-19T10:47:36;17.33;97.80
68109;SHT30;54893;49.864;19.084;2023-09-19T10:52:40;17.31;97.80
68109;SHT30;54893;49.864;19.084;2023-09-19T10:57:44;17.36;97.68
68109;SHT30;54893;49.864;19.084;2023-09-19T11:08:22;17.46;97.46
68109;SHT30;54893;49.864;19.084;2023-09-19T11:13:27;17.50;97.28
68109;SHT30;54893;49.864;19.084;2023-09-19T11:23:40;17.80;96.72
68109;SHT30;54893;49.864;19.084;2023-09-19T11:28:41;17.90;96.75
68109;SHT30;54893;49.864;19.084;2023-09-19T11:33:41;17.94;96.28
68109;SHT30;54893;49.864;19.084;2023-09-19T11:49:13;18.19;95.98
68109;SHT30;54893;49.864;19.084;2023-09-19T11:54:15;18.28;95.69
68109;SHT30;54893;49.864;19.084;2023-09-19T11:59:31;18.29;95.37
68109;SHT30;54893;49.864;19.084;2023-09-19T12:04:40;18.29;95.60
68109;SHT30;54893;49.864;19.084;2023-09-19T12:09:47;18.17;95.91
68109;SHT30;54893;49.864;19.084;2023-09-19T12:14:48;17.98;96.31
68109;SHT30;54893;49.864;19.084;2023-09-19T12:19:50;18.12;95.79
68109;SHT30;54893;49.864;19.084;2023-09-19T12:24:51;18.58;94.92
68109;SHT30;54893;49.864;19.084;2023-09-19T12:29:54;19.36;93.39
68109;SHT30;54893;49.864;19.084;2023-09-19T12:34:55;19.85;92.07
68109;SHT30;54893;49.864;19.084;2023-09-19T12:40:14;20.35;91.28
68109;SHT30;54893;49.864;19.084;2023-09-19T12:45:17;20.61;90.41
68109;SHT30;54893;49.864;19.084;2023-09-19T12:50:18;21.26;88.80
68109;SHT30;54893;49.864;19.084;2023-09-19T12:55:30;21.26;88.11
68109;SHT30;54893;49.864;19.084;2023-09-19T13:00:37;21.53;87.10
68109;SHT30;54893;49.864;19.084;2023-09-19T13:05:48;21.09;87.24
68109;SHT30;54893;49.864;19.084;2023-09-19T13:11:19;20.55;87.10
68109;SHT30;54893;49.864;19.084;2023-09-19T13:16:21;20.45;87.13
68109;SHT30;54893;49.864;19.084;2023-09-19T13:21:31;20.76;86.70
68109;SHT30;54893;49.864;19.084;2023-09-19T13:26:42;21.22;85.55
68109;SHT30;54893;49.864;19.084;2023-09-19T13:31:54;21.37;85.76
68109;SHT30;54893;49.864;19.084;2023-09-19T13:36:54;21.40;85.34
68109;SHT30;54893;49.864;19.084;2023-09-19T13:41:54;21.60;85.19
68109;SHT30;54893;49.864;19.084;2023-09-19T13:46:55;21.54;85.16
68109;SHT30;54893;49.864;19.084;2023-09-19T13:51:57;22.02;83.77
68109;SHT30;54893;49.864;19.084;2023-09-19T13:56:58;21.66;83.52
68109;SHT30;54893;49.864;19.084;2023-09-19T14:01:58;21.22;85.08
68109;SHT30;54893;49.864;19.084;2023-09-19T14:06:58;21.13;85.05
68109;SHT30;54893;49.864;19.084;2023-09-19T14:12:00;20.86;85.13
68109;SHT30;54893;49.864;19.084;2023-09-19T14:17:01;20.49;85.91
68109;SHT30;54893;49.864;19.084;2023-09-19T14:22:02;20.36;86.29
68109;SHT30;54893;49.864;19.084;2023-09-19T14:27:07;20.42;85.59
68109;SHT30;54893;49.864;19.084;2023-09-19T14:32:09;20.31;86.22
68109;SHT30;54893;49.864;19.084;2023-09-19T14:37:10;20.31;86.50
68109;SHT30;54893;49.864;19.084;2023-09-19T14:42:11;20.29;86.72
68109;SHT30;54893;49.864;19.084;2023-09-19T14:47:12;20.25;86.70
68109;SHT30;54893;49.864;19.084;2023-09-19T14:52:13;20.20;86.86
68109;SHT30;54893;49.864;19.084;2023-09-19T14:57:15;20.28;86.70
68109;SHT30;54893;49.864;19.084;2023-09-19T15:02:16;20.35;86.65
68109;SHT30;54893;49.864;19.084;2023-09-19T15:07:17;20.65;86.06
68109;SHT30;54893;49.864;19.084;2023-09-19T15:12:17;20.35;86.21
68109;SHT30;54893;49.864;19.084;2023-09-19T15:17:18;20.05;86.89
68109;SHT30;54893;49.864;19.084;2023-09-19T15:22:19;19.81;87.29
68109;SHT30;54893;49.864;19.084;2023-09-19T15:27:20;20.65;85.75
68109;SHT30;54893;49.864;19.084;2023-09-19T15:32:21;21.80;81.58
68109;SHT30;54893;49.864;19.084;2023-09-19T15:37:21;21.13;84.98
68109;SHT30;54893;49.864;19.084;2023-09-19T15:42:22;20.01;87.08
68109;SHT30;54893;49.864;19.084;2023-09-19T15:47:22;18.99;88.97
68109;SHT30;54893;49.864;19.084;2023-09-19T15:52:23;18.45;89.16
68109;SHT30;54893;49.864;19.084;2023-09-19T15:57:26;18.02;90.26
68109;SHT30;54893;49.864;19.084;2023-09-19T16:02:28;18.19;89.55
68109;SHT30;54893;49.864;19.084;2023-09-19T16:07:28;17.49;92.05
68109;SHT30;54893;49.864;19.084;2023-09-19T16:12:30;17.17;92.93
68109;SHT30;54893;49.864;19.084;2023-09-19T16:17:30;17.26;93.50
68109;SHT30;54893;49.864;19.084;2023-09-19T16:22:30;17.44;95.05
68109;SHT30;54893;49.864;19.084;2023-09-19T16:27:31;17.31;95.96
68109;SHT30;54893;49.864;19.084;2023-09-19T16:32:32;17.26;96.05
68109;SHT30;54893;49.864;19.084;2023-09-19T16:37:33;17.07;96.86
68109;SHT30;54893;49.864;19.084;2023-09-19T16:42:33;16.90;97.24
68109;SHT30;54893;49.864;19.084;2023-09-19T16:47:34;16.76;97.84
68109;SHT30;54893;49.864;19.084;2023-09-19T16:52:34;16.61;98.28
68109;SHT30;54893;49.864;19.084;2023-09-19T16:57:34;16.41;98.03
68109;SHT30;54893;49.864;19.084;2023-09-19T17:02:35;16.25;98.40
68109;SHT30;54893;49.864;19.084;2023-09-19T17:07:36;16.07;98.56
68109;SHT30;54893;49.864;19.084;2023-09-19T17:12:38;15.87;99.17
68109;SHT30;54893;49.864;19.084;2023-09-19T17:17:39;15.73;99.30
68109;SHT30;54893;49.864;19.084;2023-09-19T17:22:39;15.58;99.99
68109;SHT30;54893;49.864;19.084;2023-09-19T17:27:39;15.46;99.75
68109;SHT30;54893;49.864;19.084;2023-09-19T17:32:40;15.44;99.99
68109;SHT30;54893;49.864;19.084;2023-09-19T17:37:40;15.46;97.61
68109;SHT30;54893;49.864;19.084;2023-09-19T17:42:41;15.60;95.98
68109;SHT30;54893;49.864;19.084;2023-09-19T17:47:44;15.57;95.85
68109;SHT30;54893;49.864;19.084;2023-09-19T17:52:44;15.60;96.22
68109;SHT30;54893;49.864;19.084;2023-09-19T17:57:44;15.50;97.00
68109;SHT30;54893;49.864;19.084;2023-09-19T18:02:48;15.46;98.20
68109;SHT30;54893;49.864;19.084;2023-09-19T18:07:48;15.44;97.85
68109;SHT30;54893;49.864;19.084;2023-09-19T18:12:49;15.60;96.12
68109;SHT30;54893;49.864;19.084;2023-09-19T18:17:51;15.64;95.91
68109;SHT30;54893;49.864;19.084;2023-09-19T18:22:52;15.58;97.77
68109;SHT30;54893;49.864;19.084;2023-09-19T18:27:54;15.53;97.47
68109;SHT30;54893;49.864;19.084;2023-09-19T18:32:56;15.53;99.14
68109;SHT30;54893;49.864;19.084;2023-09-19T18:37:57;15.47;97.71
68109;SHT30;54893;49.864;19.084;2023-09-19T18:42:57;15.44;97.78
68109;SHT30;54893;49.864;19.084;2023-09-19T18:47:58;15.29;97.89
68109;SHT30;54893;49.864;19.084;2023-09-19T18:52:59;15.29;99.32
68109;SHT30;54893;49.864;19.084;2023-09-19T18:58:00;15.20;98.47
68109;SHT30;54893;49.864;19.084;2023-09-19T19:03:02;15.11;98.49
68109;SHT30;54893;49.864;19.084;2023-09-19T19:08:05;15.06;99.30
68109;SHT30;54893;49.864;19.084;2023-09-19T19:13:05;15.09;97.98
68109;SHT30;54893;49.864;19.084;2023-09-19T19:18:06;15.07;98.70
68109;SHT30;54893;49.864;19.084;2023-09-19T19:23:06;15.00;99.01
68109;SHT30;54893;49.864;19.084;2023-09-19T19:28:07;14.93;98.41
68109;SHT30;54893;49.864;19.084;2023-09-19T19:33:08;14.90;98.91
68109;SHT30;54893;49.864;19.084;2023-09-19T19:38:08;14.79;99.66
68109;SHT30;54893;49.864;19.084;2023-09-19T19:43:09;14.75;99.99
68109;SHT30;54893;49.864;19.084;2023-09-19T19:48:09;14.66;99.32
68109;SHT30;54893;49.864;19.084;2023-09-19T19:53:10;14.61;99.92
68109;SHT30;54893;49.864;19.084;2023-09-19T19:58:13;14.58;99.99
68109;SHT30;54893;49.864;19.084;2023-09-19T20:03:15;14.52;99.99
68109;SHT30;54893;49.864;19.084;2023-09-19T20:08:15;14.41;99.75
68109;SHT30;54893;49.864;19.084;2023-09-19T20:13:15;14.35;99.15
68109;SHT30;54893;49.864;19.084;2023-09-19T20:18:17;14.33;99.51
68109;SHT30;54893;49.864;19.084;2023-09-19T20:23:19;14.33;99.36
68109;SHT30;54893;49.864;19.084;2023-09-19T20:28:20;14.29;99.20
68109;SHT30;54893;49.864;19.084;2023-09-19T20:33:23;14.29;98.79
68109;SHT30;54893;49.864;19.084;2023-09-19T20:38:23;14.32;99.54
68109;SHT30;54893;49.864;19.084;2023-09-19T20:43:24;14.31;98.06
68109;SHT30;54893;49.864;19.084;2023-09-19T20:48:24;14.46;97.84
68109;SHT30;54893;49.864;19.084;2023-09-19T20:53:25;14.35;98.42
68109;SHT30;54893;49.864;19.084;2023-09-19T20:58:26;14.31;97.98
68109;SHT30;54893;49.864;19.084;2023-09-19T21:03:27;14.29;97.79
68109;SHT30;54893;49.864;19.084;2023-09-19T21:08:28;14.32;98.55
68109;SHT30;54893;49.864;19.084;2023-09-19T21:13:28;14.28;97.72
68109;SHT30;54893;49.864;19.084;2023-09-19T21:18:28;14.33;97.89
68109;SHT30;54893;49.864;19.084;2023-09-19T21:23:31;14.33;97.31
68109;SHT30;54893;49.864;19.084;2023-09-19T21:28:31;14.29;97.78
68109;SHT30;54893;49.864;19.084;2023-09-19T21:33:32;14.29;98.46
68109;SHT30;54893;49.864;19.084;2023-09-19T21:38:33;14.33;98.55
68109;SHT30;54893;49.864;19.084;2023-09-19T21:43:33;14.38;97.79
68109;SHT30;54893;49.864;19.084;2023-09-19T21:48:35;14.33;97.43
68109;SHT30;54893;49.864;19.084;2023-09-19T21:53:36;14.21;97.99
68109;SHT30;54893;49.864;19.084;2023-09-19T21:58:37;14.07;97.81
68109;SHT30;54893;49.864;19.084;2023-09-19T22:03:39;14.02;97.96
68109;SHT30;54893;49.864;19.084;2023-09-19T22:08:40;14.04;97.98
68109;SHT30;54893;49.864;19.084;2023-09-19T22:13:41;14.01;97.83
68109;SHT30;54893;49.864;19.084;2023-09-19T22:18:44;13.89;98.29
68109;SHT30;54893;49.864;19.084;2023-09-19T22:23:50;13.91;97.41
68109;SHT30;54893;49.864;19.084;2023-09-19T22:28:53;13.91;97.14
68109;SHT30;54893;49.864;19.084;2023-09-19T22:33:55;14.11;96.85
68109;SHT30;54893;49.864;19.084;2023-09-19T22:38:55;14.14;96.68
68109;SHT30;54893;49.864;19.084;2023-09-19T22:43:59;14.25;96.36
68109;SHT30;54893;49.864;19.084;2023-09-19T22:49:00;14.21;97.03
68109;SHT30;54893;49.864;19.084;2023-09-19T22:54:01;14.22;96.44
68109;SHT30;54893;49.864;19.084;2023-09-19T22:59:03;14.24;96.59
68109;SHT30;54893;49.864;19.084;2023-09-19T23:04:04;14.15;97.04
68109;SHT30;54893;49.864;19.084;2023-09-19T23:09:08;14.09;98.11
68109;SHT30;54893;49.864;19.084;2023-09-19T23:14:08;14.12;97.47
68109;SHT30;54893;49.864;19.084;2023-09-19T23:19:08;14.11;97.60
68109;SHT30;54893;49.864;19.084;2023-09-19T23:24:24;14.18;97.14
68109;SHT30;54893;49.864;19.084;2023-09-19T23:29:29;14.36;97.05
68109;SHT30;54893;49.864;19.084;2023-09-19T23:34:29;14.48;96.36
68109;SHT30;54893;49.864;19.084;2023-09-19T23:39:29;14.43;96.43
68109;SHT30;54893;49.864;19.084;2023-09-19T23:44:30;14.43;96.20
68109;SHT30;54893;49.864;19.084;2023-09-19T23:49:30;14.42;96.80
68109;SHT30;54893;49.864;19.084;2023-09-19T23:54:31;14.39;96.39
68109;SHT30;54893;49.864;19.084;2023-09-19T23:59:34;14.33;96.46
